createdAt,value
2017-12-16T00:02:09.083Z,5.68
2017-12-16T00:04:37.180Z,8.00
2017-12-16T00:07:06.044Z,7.90
2017-12-16T00:09:34.158Z,8.30
2017-12-16T00:12:02.228Z,6.95
2017-12-16T00:14:30.340Z,8.25
2017-12-16T00:16:58.425Z,9.38
2017-12-16T00:19:26.547Z,8.20
2017-12-16T00:21:54.604Z,7.12
2017-12-16T00:24:22.743Z,7.95
2017-12-16T00:26:50.812Z,8.23
2017-12-16T00:29:18.930Z,8.50
2017-12-16T00:31:47.022Z,11.00
2017-12-16T00:34:15.115Z,7.05
2017-12-16T00:36:43.235Z,5.87
2017-12-16T00:39:11.315Z,8.15
2017-12-16T00:41:39.445Z,10.20
2017-12-16T00:44:07.542Z,10.88
2017-12-16T00:46:35.623Z,11.30
2017-12-16T00:49:03.708Z,8.13
2017-12-16T00:51:31.783Z,8.88
2017-12-16T00:53:59.887Z,9.63
2017-12-16T00:56:27.977Z,9.73
2017-12-16T00:58:56.946Z,11.77
2017-12-16T01:01:25.027Z,11.25
2017-12-16T01:03:53.175Z,10.18
2017-12-16T01:06:21.270Z,9.73
2017-12-16T01:08:50.175Z,10.05
2017-12-16T01:11:18.267Z,9.20
2017-12-16T01:13:46.340Z,8.80
2017-12-16T01:16:14.464Z,8.82
2017-12-16T01:18:42.541Z,10.63
2017-12-16T01:21:11.503Z,14.15
2017-12-16T01:23:39.597Z,11.77
2017-12-16T01:26:07.708Z,10.30
2017-12-16T01:28:35.798Z,10.80
2017-12-16T01:31:03.883Z,11.90
2017-12-16T01:33:43.688Z,9.43
2017-12-16T01:36:34.332Z,9.82
2017-12-16T01:39:02.426Z,11.63
2017-12-16T01:41:31.287Z,14.00
2017-12-16T01:43:59.380Z,10.52
2017-12-16T01:46:27.462Z,8.95
2017-12-16T01:48:56.306Z,9.85
2017-12-16T01:51:24.387Z,10.95
2017-12-16T01:53:52.482Z,9.95
2017-12-16T01:56:21.323Z,8.50
2017-12-16T01:58:49.415Z,10.38
2017-12-16T02:01:17.534Z,9.73
2017-12-16T02:03:45.618Z,9.02
2017-12-16T02:06:13.711Z,7.90
2017-12-16T02:08:42.424Z,14.75
2017-12-16T02:11:11.420Z,23.55
2017-12-16T02:13:40.287Z,24.00
2017-12-16T02:16:08.437Z,25.30
2017-12-16T02:18:36.662Z,17.98
2017-12-16T02:21:04.748Z,14.45
2017-12-16T02:23:33.053Z,26.52
2017-12-16T02:26:01.283Z,22.25
2017-12-16T02:28:29.353Z,12.88
2017-12-16T02:30:58.195Z,10.25
2017-12-16T02:33:26.320Z,8.30
2017-12-16T02:35:55.208Z,7.80
2017-12-16T02:38:24.096Z,7.25
2017-12-16T02:40:52.967Z,7.90
2017-12-16T02:43:21.093Z,8.55
2017-12-16T02:45:49.151Z,6.82
2017-12-16T02:48:17.279Z,7.87
2017-12-16T02:50:45.366Z,9.27
2017-12-16T02:53:13.443Z,10.00
2017-12-16T02:55:41.548Z,10.05
2017-12-16T02:58:09.676Z,8.52
2017-12-16T03:00:37.728Z,7.93
2017-12-16T03:03:05.899Z,8.48
2017-12-16T03:05:33.964Z,9.95
2017-12-16T03:08:02.052Z,10.00
2017-12-16T03:10:31.013Z,10.43
2017-12-16T03:12:59.158Z,9.10
2017-12-16T03:15:27.394Z,10.35
2017-12-16T03:17:55.512Z,10.73
2017-12-16T03:20:23.639Z,12.65
2017-12-16T03:22:52.554Z,10.32
2017-12-16T03:25:20.736Z,10.98
2017-12-16T03:27:48.849Z,13.05
2017-12-16T03:30:16.975Z,12.40
2017-12-16T03:32:45.075Z,12.37
2017-12-16T03:35:13.314Z,10.60
2017-12-16T03:37:42.481Z,10.52
2017-12-16T03:40:10.641Z,12.30
2017-12-16T03:42:39.536Z,11.73
2017-12-16T03:45:07.608Z,11.00
2017-12-16T03:47:36.641Z,12.45
2017-12-16T03:50:04.717Z,10.82
2017-12-16T03:52:32.875Z,12.77
2017-12-16T03:55:01.015Z,10.30
2017-12-16T03:57:29.998Z,10.75
2017-12-16T03:59:58.990Z,13.13
2017-12-16T04:02:27.086Z,11.10
2017-12-16T04:04:55.207Z,12.52
2017-12-16T04:07:23.302Z,12.25
2017-12-16T04:09:52.843Z,13.70
2017-12-16T04:12:20.931Z,11.77
2017-12-16T04:14:49.078Z,10.38
2017-12-16T04:17:17.200Z,18.17
2017-12-16T04:19:45.292Z,14.60
2017-12-16T04:22:14.259Z,13.07
2017-12-16T04:24:43.867Z,14.90
2017-12-16T04:27:11.940Z,9.65
2017-12-16T04:29:40.027Z,10.25
2017-12-16T04:32:08.114Z,8.98
2017-12-16T04:34:36.245Z,8.95
2017-12-16T04:37:04.320Z,7.82
2017-12-16T04:39:32.386Z,8.15
2017-12-16T04:42:00.467Z,7.70
2017-12-16T04:44:28.556Z,8.43
2017-12-16T04:46:57.407Z,8.48
2017-12-16T04:49:25.467Z,8.05
2017-12-16T04:51:53.575Z,9.13
2017-12-16T04:54:22.414Z,9.85
2017-12-16T04:56:50.487Z,9.60
2017-12-16T04:59:18.571Z,10.00
2017-12-16T05:01:46.664Z,11.00
2017-12-16T05:04:14.747Z,10.57
2017-12-16T05:06:43.583Z,14.15
2017-12-16T05:09:11.666Z,11.95
2017-12-16T05:11:39.746Z,10.80
2017-12-16T05:14:07.838Z,12.37
2017-12-16T05:16:36.695Z,11.85
2017-12-16T05:19:04.769Z,12.63
2017-12-16T05:21:32.848Z,13.27
2017-12-16T05:24:00.932Z,14.93
2017-12-16T05:26:29.024Z,12.93
2017-12-16T05:28:57.116Z,15.23
2017-12-16T05:31:25.282Z,14.40
2017-12-16T05:33:53.365Z,13.55
2017-12-16T05:36:21.452Z,14.95
2017-12-16T05:38:49.531Z,13.25
2017-12-16T05:41:17.611Z,14.40
2017-12-16T05:43:45.697Z,16.00
2017-12-16T05:46:14.687Z,13.70
2017-12-16T05:48:42.768Z,14.45
2017-12-16T05:51:11.631Z,16.55
2017-12-16T05:53:39.731Z,15.43
2017-12-16T05:56:08.591Z,20.42
2017-12-16T05:58:36.699Z,21.50
2017-12-16T06:01:04.806Z,17.37
2017-12-16T06:03:32.895Z,17.10
2017-12-16T06:06:00.993Z,16.37
2017-12-16T06:08:29.846Z,20.35
2017-12-16T06:10:57.991Z,22.33
2017-12-16T06:13:26.099Z,23.67
2017-12-16T06:15:54.192Z,14.55
2017-12-16T06:18:23.043Z,17.45
2017-12-16T06:20:51.134Z,14.68
2017-12-16T06:23:19.221Z,15.02
2017-12-16T06:25:47.295Z,14.60
2017-12-16T06:28:16.154Z,17.85
2017-12-16T06:30:44.291Z,17.17
2017-12-16T06:33:12.419Z,15.02
2017-12-16T06:35:41.306Z,16.33
2017-12-16T06:38:09.400Z,15.00
2017-12-16T06:40:38.260Z,14.27
2017-12-16T06:43:06.344Z,20.25
2017-12-16T06:45:35.199Z,16.15
2017-12-16T06:48:03.304Z,16.95
2017-12-16T06:50:31.371Z,18.23
2017-12-16T06:52:59.505Z,16.73
2017-12-16T06:55:27.571Z,19.33
2017-12-16T06:57:55.667Z,17.35
2017-12-16T07:00:23.791Z,17.45
2017-12-16T07:02:51.871Z,17.58
2017-12-16T07:05:19.982Z,22.62
2017-12-16T07:07:48.090Z,16.45
2017-12-16T07:10:17.039Z,22.35
2017-12-16T07:12:45.134Z,18.55
2017-12-16T07:15:13.399Z,18.60
2017-12-16T07:17:41.475Z,27.02
2017-12-16T07:20:10.324Z,17.35
2017-12-16T07:22:38.425Z,17.80
2017-12-16T07:25:06.506Z,23.42
2017-12-16T07:27:35.358Z,22.40
2017-12-16T07:30:03.447Z,21.12
2017-12-16T07:32:31.532Z,21.02
2017-12-16T07:35:00.392Z,25.52
2017-12-16T07:37:28.479Z,20.88
2017-12-16T07:39:57.363Z,19.83
2017-12-16T07:42:25.439Z,18.08
2017-12-16T07:44:53.528Z,24.48
2017-12-16T07:47:22.379Z,23.00
2017-12-16T07:49:50.476Z,23.65
2017-12-16T07:52:18.951Z,18.52
2017-12-16T07:54:47.827Z,19.08
2017-12-16T07:57:15.915Z,16.48
2017-12-16T07:59:44.762Z,16.55
2017-12-16T08:02:12.860Z,16.83
2017-12-16T08:04:40.944Z,23.23
2017-12-16T08:07:09.803Z,23.38
2017-12-16T08:09:37.894Z,24.08
2017-12-16T08:12:05.978Z,22.35
2017-12-16T08:14:34.827Z,21.00
2017-12-16T08:17:02.927Z,25.23
2017-12-16T08:19:31.021Z,27.60
2017-12-16T08:21:59.103Z,22.52
2017-12-16T08:24:27.191Z,28.12
2017-12-16T08:26:55.323Z,27.00
2017-12-16T08:29:23.420Z,17.52
2017-12-16T08:31:51.543Z,16.37
2017-12-16T08:34:19.628Z,15.73
2017-12-16T08:36:48.488Z,18.25
2017-12-16T08:39:16.569Z,15.25
2017-12-16T08:41:44.690Z,15.15
2017-12-16T08:44:12.780Z,18.52
2017-12-16T08:46:40.888Z,21.65
2017-12-16T08:49:08.971Z,20.58
2017-12-16T08:51:38.472Z,19.12
2017-12-16T08:54:07.324Z,17.25
2017-12-16T08:56:35.415Z,16.90
2017-12-16T08:59:04.272Z,30.05
2017-12-16T09:01:32.357Z,23.05
2017-12-16T09:04:00.455Z,23.60
2017-12-16T09:06:29.319Z,20.73
2017-12-16T09:08:57.415Z,19.70
2017-12-16T09:11:26.292Z,20.58
2017-12-16T09:13:55.178Z,19.52
2017-12-16T09:16:24.036Z,25.98
2017-12-16T09:18:52.117Z,21.90
2017-12-16T09:21:20.270Z,22.42
2017-12-16T09:23:48.374Z,20.27
2017-12-16T09:26:16.458Z,25.35
2017-12-16T09:28:45.334Z,28.73
2017-12-16T09:31:13.414Z,21.80
2017-12-16T09:33:42.260Z,21.58
2017-12-16T09:36:10.347Z,28.58
2017-12-16T09:38:38.442Z,22.62
2017-12-16T09:41:06.531Z,28.75
2017-12-16T09:43:34.627Z,18.73
2017-12-16T09:46:02.716Z,20.27
2017-12-16T09:48:30.799Z,21.80
2017-12-16T09:50:58.893Z,20.50
2017-12-16T09:53:27.743Z,18.05
2017-12-16T09:55:55.849Z,22.13
2017-12-16T09:58:23.964Z,18.52
2017-12-16T10:00:52.051Z,18.25
2017-12-16T10:03:20.147Z,18.27
2017-12-16T10:05:48.240Z,23.12
2017-12-16T10:08:17.121Z,23.50
2017-12-16T10:10:45.203Z,19.45
2017-12-16T10:13:14.076Z,18.27
2017-12-16T10:15:43.049Z,21.60
2017-12-16T10:18:11.134Z,19.50
2017-12-16T10:20:39.988Z,21.87
2017-12-16T10:23:08.078Z,23.00
2017-12-16T10:25:36.211Z,17.80
2017-12-16T10:28:05.035Z,18.77
2017-12-16T10:30:33.272Z,19.48
2017-12-16T10:33:01.331Z,21.02
2017-12-16T10:35:29.438Z,16.85
2017-12-16T10:37:57.515Z,15.85
2017-12-16T10:40:25.629Z,18.83
2017-12-16T10:42:54.495Z,17.45
2017-12-16T10:45:22.574Z,19.12
2017-12-16T10:47:51.454Z,17.37
2017-12-16T10:50:19.544Z,20.30
2017-12-16T10:52:48.404Z,17.87
2017-12-16T10:55:16.519Z,14.30
2017-12-16T10:57:45.342Z,15.75
2017-12-16T11:00:13.482Z,17.00
2017-12-16T11:02:41.568Z,17.02
2017-12-16T11:05:09.657Z,18.05
2017-12-16T11:07:37.755Z,15.68
2017-12-16T11:10:05.843Z,16.10
2017-12-16T11:12:33.970Z,14.05
2017-12-16T11:15:02.039Z,13.30
2017-12-16T11:17:30.132Z,11.70
2017-12-16T11:19:59.002Z,14.27
2017-12-16T11:22:27.090Z,14.63
2017-12-16T11:24:55.195Z,12.90
2017-12-16T11:27:24.045Z,11.57
2017-12-16T11:29:52.127Z,11.93
2017-12-16T11:32:21.017Z,14.55
2017-12-16T11:34:49.092Z,12.40
2017-12-16T11:37:17.961Z,10.68
2017-12-16T11:39:46.069Z,11.73
2017-12-16T11:42:14.164Z,12.00
2017-12-16T11:44:42.267Z,11.75
2017-12-16T11:47:10.366Z,13.57
2017-12-16T11:49:39.211Z,12.15
2017-12-16T11:52:07.358Z,12.93
2017-12-16T11:54:35.446Z,10.80
2017-12-16T11:57:03.539Z,12.07
2017-12-16T11:59:31.639Z,13.23
2017-12-16T12:02:00.492Z,11.50
2017-12-16T12:04:28.579Z,12.40
2017-12-16T12:06:56.679Z,14.00
2017-12-16T12:09:24.810Z,14.82
2017-12-16T12:11:52.886Z,14.15
2017-12-16T12:14:20.971Z,12.63
2017-12-16T12:16:49.837Z,14.00
2017-12-16T12:19:17.934Z,13.32
2017-12-16T12:21:46.804Z,12.75
2017-12-16T12:24:14.942Z,12.63
2017-12-16T12:26:43.033Z,13.27
2017-12-16T12:29:11.130Z,12.90
2017-12-16T12:31:40.107Z,12.95
2017-12-16T12:34:08.175Z,11.90
2017-12-16T12:36:36.270Z,12.20
2017-12-16T12:39:05.236Z,13.15
2017-12-16T12:41:34.833Z,13.62
2017-12-16T12:44:02.927Z,14.00
2017-12-16T12:46:31.777Z,12.75
2017-12-16T12:49:00.220Z,14.60
2017-12-16T12:51:28.303Z,15.50
2017-12-16T12:53:56.439Z,11.60
2017-12-16T12:56:25.299Z,11.43
2017-12-16T12:58:53.386Z,11.60
2017-12-16T13:01:22.251Z,11.47
2017-12-16T13:03:50.340Z,10.57
2017-12-16T13:06:18.430Z,11.63
2017-12-16T13:08:46.518Z,10.80
2017-12-16T13:11:14.602Z,11.85
2017-12-16T13:13:42.695Z,10.43
2017-12-16T13:16:10.795Z,10.27
2017-12-16T13:18:39.650Z,10.55
2017-12-16T13:21:07.746Z,11.60
2017-12-16T13:23:35.830Z,10.77
2017-12-16T13:26:04.684Z,12.20
2017-12-16T13:28:32.772Z,12.40
2017-12-16T13:31:00.858Z,13.13
2017-12-16T13:33:28.939Z,14.10
2017-12-16T13:35:57.796Z,15.45
2017-12-16T13:38:27.395Z,24.55
2017-12-16T13:40:55.559Z,26.87
2017-12-16T13:43:23.654Z,19.25
2017-12-16T13:45:51.731Z,15.00
2017-12-16T13:48:20.584Z,14.50
2017-12-16T13:50:48.758Z,15.43
2017-12-16T13:53:16.765Z,14.63
2017-12-16T13:55:45.626Z,23.17
2017-12-16T13:58:13.717Z,26.65
2017-12-16T14:00:41.819Z,17.33
2017-12-16T14:03:09.907Z,17.85
2017-12-16T14:05:37.995Z,18.42
2017-12-16T14:08:06.379Z,17.60
2017-12-16T14:10:34.488Z,19.10
2017-12-16T14:13:03.330Z,18.80
2017-12-16T14:15:31.415Z,20.10
2017-12-16T14:17:59.506Z,18.27
2017-12-16T14:20:28.431Z,17.65
2017-12-16T14:22:57.321Z,19.10
2017-12-16T14:25:25.469Z,17.50
2017-12-16T14:27:53.551Z,17.95
2017-12-16T14:30:21.647Z,16.30
2017-12-16T14:32:49.729Z,16.98
2017-12-16T14:35:17.869Z,17.27
2017-12-16T14:37:46.819Z,18.10
2017-12-16T14:40:14.950Z,15.98
2017-12-16T14:42:43.109Z,16.20
2017-12-16T14:45:11.155Z,17.40
2017-12-16T14:47:40.126Z,17.15
2017-12-16T14:50:08.216Z,19.25
2017-12-16T14:52:37.124Z,20.42
2017-12-16T14:55:05.260Z,18.33
2017-12-16T14:57:33.338Z,20.55
2017-12-16T15:00:02.195Z,22.05
2017-12-16T15:02:30.290Z,19.02
2017-12-16T15:04:59.136Z,21.30
2017-12-16T15:07:27.476Z,23.73
2017-12-16T15:09:56.307Z,21.40
2017-12-16T15:12:24.430Z,21.12
2017-12-16T15:14:52.507Z,24.35
2017-12-16T15:17:20.606Z,19.67
2017-12-16T15:19:48.683Z,19.80
2017-12-16T15:22:16.779Z,22.08
2017-12-16T15:24:44.868Z,20.05
2017-12-16T15:27:13.724Z,18.50
2017-12-16T15:29:41.862Z,19.95
2017-12-16T15:32:09.946Z,19.10
2017-12-16T15:34:38.100Z,19.35
2017-12-16T15:37:06.187Z,18.25
2017-12-16T15:39:34.272Z,18.05
2017-12-16T15:42:02.352Z,17.65
2017-12-16T15:44:30.433Z,18.48
2017-12-16T15:46:58.519Z,17.40
2017-12-16T15:49:27.425Z,17.48
2017-12-16T15:51:56.267Z,18.30
2017-12-16T15:54:24.418Z,17.23
2017-12-16T15:56:52.480Z,19.02
2017-12-16T15:59:20.567Z,20.20
2017-12-16T16:01:48.740Z,18.70
2017-12-16T16:04:16.779Z,16.52
2017-12-16T16:06:44.879Z,18.12
2017-12-16T16:09:13.001Z,17.12
2017-12-16T16:11:41.887Z,16.70
2017-12-16T16:14:09.954Z,18.35
2017-12-16T16:16:38.805Z,18.95
2017-12-16T16:19:06.886Z,16.17
2017-12-16T16:21:34.982Z,17.33
2017-12-16T16:24:03.835Z,17.48
2017-12-16T16:26:31.921Z,18.08
2017-12-16T16:29:00.064Z,19.67
2017-12-16T16:31:28.118Z,18.87
2017-12-16T16:33:56.205Z,20.90
2017-12-16T16:36:24.297Z,19.33
2017-12-16T16:38:52.419Z,20.50
2017-12-16T16:41:20.532Z,18.17
2017-12-16T16:43:48.646Z,19.12
2017-12-16T16:46:17.530Z,18.48
2017-12-16T16:48:46.376Z,18.27
2017-12-16T16:51:14.456Z,17.90
2017-12-16T16:53:42.539Z,19.62
2017-12-16T16:56:10.662Z,19.75
2017-12-16T16:58:38.744Z,19.67
2017-12-16T17:01:06.883Z,19.62
2017-12-16T17:03:35.719Z,18.77
2017-12-16T17:06:03.866Z,16.87
2017-12-16T17:08:31.895Z,18.30
2017-12-16T17:11:00.947Z,17.12
2017-12-16T17:13:29.091Z,15.88
2017-12-16T17:15:57.216Z,16.17
2017-12-16T17:18:25.364Z,17.85
2017-12-16T17:20:53.426Z,15.13
2017-12-16T17:23:21.574Z,17.65
2017-12-16T17:25:49.654Z,17.25
2017-12-16T17:28:17.813Z,18.23
2017-12-16T17:30:45.963Z,18.62
2017-12-16T17:33:14.102Z,16.30
2017-12-16T17:35:42.217Z,15.93
2017-12-16T17:38:10.338Z,17.27
2017-12-16T17:40:38.422Z,19.90
2017-12-16T17:43:06.512Z,22.95
2017-12-16T17:45:35.419Z,24.08
2017-12-16T17:48:03.500Z,33.00
2017-12-16T17:50:31.580Z,26.95
2017-12-16T17:52:59.720Z,20.33
2017-12-16T17:55:28.554Z,17.05
2017-12-16T17:57:56.649Z,19.90
2017-12-16T18:00:24.787Z,16.90
2017-12-16T18:02:52.908Z,18.37
2017-12-16T18:05:20.997Z,16.92
2017-12-16T18:07:49.180Z,18.48
2017-12-16T18:10:17.372Z,16.95
2017-12-16T18:12:45.503Z,17.33
2017-12-16T18:15:14.416Z,19.15
2017-12-16T18:17:42.530Z,18.27
2017-12-16T18:20:10.658Z,17.92
2017-12-16T18:22:38.736Z,17.80
2017-12-16T18:25:06.863Z,15.90
2017-12-16T18:27:34.962Z,17.35
2017-12-16T18:30:03.139Z,17.15
2017-12-16T18:32:31.299Z,18.08
2017-12-16T18:34:59.417Z,23.50
2017-12-16T18:37:27.524Z,26.25
2017-12-16T18:39:55.594Z,22.10
2017-12-16T18:42:24.450Z,19.95
2017-12-16T18:44:52.539Z,19.73
2017-12-16T18:47:20.676Z,19.45
2017-12-16T18:49:48.788Z,17.58
2017-12-16T18:52:16.888Z,18.17
2017-12-16T18:54:45.727Z,19.33
2017-12-16T18:57:13.853Z,19.12
2017-12-16T18:59:41.995Z,19.25
2017-12-16T19:02:10.105Z,21.77
2017-12-16T19:04:38.227Z,18.83
2017-12-16T19:07:06.406Z,19.92
2017-12-16T19:09:34.436Z,20.88
2017-12-16T19:12:02.519Z,20.05
2017-12-16T19:14:30.655Z,21.30
2017-12-16T19:16:58.773Z,20.33
2017-12-16T19:19:26.886Z,19.67
2017-12-16T19:21:55.203Z,20.90
2017-12-16T19:24:23.324Z,20.15
2017-12-16T19:26:52.178Z,19.80
2017-12-16T19:29:20.372Z,18.48
2017-12-16T19:31:49.266Z,19.65
2017-12-16T19:34:17.438Z,19.30
2017-12-16T19:36:45.511Z,21.27
2017-12-16T19:39:13.718Z,20.08
2017-12-16T19:41:42.007Z,19.23
2017-12-16T19:44:10.114Z,19.77
2017-12-16T19:46:38.186Z,17.95
2017-12-16T19:49:06.314Z,20.50
2017-12-16T19:51:34.425Z,17.95
2017-12-16T19:54:02.495Z,18.15
2017-12-16T19:56:31.376Z,18.00
2017-12-16T19:58:59.526Z,19.35
2017-12-16T20:01:27.654Z,18.20
2017-12-16T20:03:56.765Z,17.85
2017-12-16T20:06:24.883Z,19.52
2017-12-16T20:08:53.010Z,20.30
2017-12-16T20:11:21.136Z,20.35
2017-12-16T20:13:49.209Z,18.10
2017-12-16T20:16:18.125Z,18.65
2017-12-16T20:18:46.247Z,18.35
2017-12-16T20:21:14.370Z,17.55
2017-12-16T20:23:43.252Z,17.02
2017-12-16T20:26:12.143Z,16.92
2017-12-16T20:28:40.259Z,16.37
2017-12-16T20:31:08.388Z,16.02
2017-12-16T20:33:36.529Z,17.08
2017-12-16T20:36:04.688Z,16.85
2017-12-16T20:38:32.819Z,17.00
2017-12-16T20:41:00.937Z,15.45
2017-12-16T20:43:29.071Z,16.00
2017-12-16T20:45:57.177Z,13.88
2017-12-16T20:48:25.298Z,15.98
2017-12-16T20:50:53.442Z,14.80
2017-12-16T20:53:22.363Z,15.45
2017-12-16T20:55:50.478Z,13.20
2017-12-16T20:58:18.794Z,13.60
2017-12-16T21:00:46.913Z,14.73
2017-12-16T21:03:15.961Z,14.23
2017-12-16T21:05:44.243Z,14.40
2017-12-16T21:08:12.371Z,14.07
2017-12-16T21:10:40.535Z,13.88
2017-12-16T21:13:08.666Z,14.30
2017-12-16T21:15:36.807Z,13.80
2017-12-16T21:18:04.921Z,14.73
2017-12-16T21:20:33.189Z,13.10
2017-12-16T21:23:01.359Z,18.77
2017-12-16T21:25:29.494Z,13.88
2017-12-16T21:27:57.612Z,12.52
2017-12-16T21:30:25.715Z,11.23
2017-12-16T21:32:53.856Z,14.32
2017-12-16T21:35:21.970Z,11.40
2017-12-16T21:37:50.857Z,11.43
2017-12-16T21:40:19.732Z,10.00
2017-12-16T21:42:47.872Z,10.35
2017-12-16T21:45:15.998Z,11.55
2017-12-16T21:47:44.879Z,10.75
2017-12-16T21:50:13.779Z,11.23
2017-12-16T21:52:42.663Z,10.15
2017-12-16T21:55:11.555Z,10.20
2017-12-16T21:57:40.442Z,10.35
2017-12-16T22:00:09.350Z,11.15
2017-12-16T22:02:37.456Z,9.68
2017-12-16T22:05:05.576Z,10.38
2017-12-16T22:07:34.471Z,10.25
2017-12-16T22:10:03.482Z,9.35
2017-12-16T22:12:31.563Z,10.73
2017-12-16T22:14:59.695Z,9.90
2017-12-16T22:17:27.821Z,10.45
2017-12-16T22:19:55.935Z,11.05
2017-12-16T22:24:59.254Z,10.05
2017-12-16T22:27:27.378Z,10.55
2017-12-16T22:29:55.505Z,11.43
2017-12-16T22:32:23.646Z,10.45
2017-12-16T22:34:51.834Z,10.68
2017-12-16T22:37:19.954Z,9.30
2017-12-16T22:39:48.069Z,10.75
2017-12-16T22:42:17.004Z,11.38
2017-12-16T22:44:45.128Z,10.45
2017-12-16T22:47:14.010Z,8.48
2017-12-16T22:49:42.132Z,10.55
2017-12-16T22:52:10.255Z,10.00
2017-12-16T22:54:38.386Z,11.00
2017-12-16T22:57:06.905Z,11.15
2017-12-16T22:59:35.067Z,9.95
2017-12-16T23:02:03.179Z,10.50
2017-12-16T23:04:31.609Z,10.68
2017-12-16T23:06:59.810Z,11.10
2017-12-16T23:09:28.698Z,10.60
2017-12-16T23:11:57.599Z,11.65
2017-12-16T23:14:26.486Z,11.73
2017-12-16T23:16:55.376Z,11.02
2017-12-16T23:19:24.260Z,12.43
2017-12-16T23:21:53.190Z,10.10
2017-12-16T23:24:21.297Z,10.80
2017-12-16T23:26:49.425Z,11.65
2017-12-16T23:29:17.488Z,12.20
2017-12-16T23:31:45.618Z,13.10
2017-12-16T23:34:13.730Z,13.50
2017-12-16T23:36:41.847Z,13.45
2017-12-16T23:39:09.954Z,12.52
2017-12-16T23:41:38.771Z,15.85
2017-12-16T23:44:06.910Z,13.70
2017-12-16T23:46:35.790Z,12.25
2017-12-16T23:49:04.679Z,13.48
2017-12-16T23:51:33.514Z,13.32
2017-12-16T23:56:44.807Z,13.10
2017-12-16T23:59:12.928Z,13.65
